Time;durP1;ratioP1;P1;durP2;ratioP2;P2;SDS_P1;SDS_P2;PMS_P1;PMS_P2;Temp;Humidity;BMP_temperature;BMP_pressure;BME280_temperature;BME280_humidity;BME280_pressure;Samples;Min_cycle;Max_cycle;Signal;HPM_P1;HPM_P2
2022/02/19 00:02:00;;;;;;;;;;;8.60;90.90;;;;;;5059400;28;19908;-65
2022/02/19 00:04:26;;;;;;;;;;;8.50;90.80;;;;;;5077416;28;19904;-65
2022/02/19 00:06:52;;;;;;;;;;;8.50;90.90;;;;;;5076822;28;19904;-66
2022/02/19 00:09:17;;;;;;;;;;;8.50;91.00;;;;;;5058545;28;19904;-65
2022/02/19 00:11:43;;;;;;;;;;;8.60;91.20;;;;;;5076253;28;19911;-72
2022/02/19 00:14:09;;;;;;;;;;;8.60;91.20;;;;;;5075923;28;19995;-65
2022/02/19 00:16:36;;;;;;;;;;;8.50;91.50;;;;;;5058180;28;19991;-65
2022/02/19 00:19:02;;;;;;;;;;;8.50;91.60;;;;;;5058437;28;19908;-66
2022/02/19 00:21:28;;;;;;;;;;;8.40;91.90;;;;;;5057633;28;20380;-65
2022/02/19 00:23:53;;;;;;;;;;;8.50;92.00;;;;;;5057628;28;19910;-66
2022/02/19 00:26:19;;;;;;;;;;;8.50;92.30;;;;;;5058102;28;19908;-65
2022/02/19 00:28:44;;;;;;;;;;;8.50;92.40;;;;;;5077319;28;20010;-67
2022/02/19 00:31:10;;;;;;;;;;;8.50;92.50;;;;;;5059084;28;19952;-70
2022/02/19 00:33:36;;;;;;;;;;;8.50;92.50;;;;;;5077784;28;19904;-65
2022/02/19 00:36:01;;;;;;;;;;;8.50;92.60;;;;;;5077344;28;19911;-65
2022/02/19 00:38:27;;;;;;;;;;;8.50;92.50;;;;;;5058905;28;20050;-65
2022/02/19 00:40:53;;;;;;;;;;;8.40;92.40;;;;;;5077811;28;20280;-64
2022/02/19 00:43:18;;;;;;;;;;;8.40;92.50;;;;;;5059206;28;19912;-67
2022/02/19 00:45:44;;;;;;;;;;;8.40;92.50;;;;;;5058634;28;19908;-65
2022/02/19 00:48:09;;;;;;;;;;;8.40;92.30;;;;;;5076077;28;19904;-65
2022/02/19 00:50:35;;;;;;;;;;;8.40;92.90;;;;;;5074591;28;20375;-66
2022/02/19 00:53:01;;;;;;;;;;;8.40;93.20;;;;;;5075177;28;19908;-66
2022/02/19 00:55:27;;;;;;;;;;;8.40;93.50;;;;;;5075134;28;19905;-64
2022/02/19 00:57:52;;;;;;;;;;;8.30;94.00;;;;;;5075198;28;19994;-65
2022/02/19 01:00:18;;;;;;;;;;;8.00;97.70;;;;;;5075466;28;20368;-65
2022/02/19 01:02:43;;;;;;;;;;;7.90;98.50;;;;;;5076902;28;19908;-68
2022/02/19 01:05:09;;;;;;;;;;;7.90;99.30;;;;;;5075324;28;20369;-65
2022/02/19 01:07:35;;;;;;;;;;;7.80;99.60;;;;;;5056249;28;19908;-65
2022/02/19 01:10:01;;;;;;;;;;;7.80;99.90;;;;;;5074111;28;19995;-64
2022/02/19 01:12:27;;;;;;;;;;;7.90;99.90;;;;;;5055761;28;19916;-65
2022/02/19 01:14:52;;;;;;;;;;;7.80;99.90;;;;;;5056714;28;19984;-64
2022/02/19 01:17:18;;;;;;;;;;;7.80;99.60;;;;;;5074003;28;20300;-64
2022/02/19 01:19:55;;;;;;;;;;;7.90;98.90;;;;;;5074187;28;20358;-64
2022/02/19 01:22:21;;;;;;;;;;;8.00;98.20;;;;;;5055873;28;19908;-65
2022/02/19 01:24:46;;;;;;;;;;;7.90;98.40;;;;;;5056100;28;19904;-64
2022/02/19 01:27:12;;;;;;;;;;;7.80;99.00;;;;;;5055692;28;20350;-64
2022/02/19 01:29:37;;;;;;;;;;;7.90;98.90;;;;;;5075098;28;19950;-65
2022/02/19 01:32:03;;;;;;;;;;;7.80;99.20;;;;;;5057339;28;19904;-66
2022/02/19 01:34:29;;;;;;;;;;;7.70;99.20;;;;;;5074245;28;19950;-66
2022/02/19 01:36:54;;;;;;;;;;;7.70;99.30;;;;;;5074617;28;19932;-70
2022/02/19 01:39:20;;;;;;;;;;;7.70;99.60;;;;;;5074079;28;19912;-71
2022/02/19 01:41:45;;;;;;;;;;;7.70;99.70;;;;;;5058286;28;19919;-65
2022/02/19 01:44:12;;;;;;;;;;;7.60;99.90;;;;;;5076328;28;19908;-66
2022/02/19 01:46:37;;;;;;;;;;;7.60;99.90;;;;;;5075719;28;19993;-66
2022/02/19 01:49:04;;;;;;;;;;;7.50;99.90;;;;;;5076067;28;19905;-71
2022/02/19 01:51:32;;;;;;;;;;;7.50;99.90;;;;;;5075923;28;19905;-65
2022/02/19 01:54:01;;;;;;;;;;;7.60;99.90;;;;;;5058125;28;19958;-66
2022/02/19 01:56:27;;;;;;;;;;;7.60;99.90;;;;;;5073994;28;19904;-66
2022/02/19 01:58:52;;;;;;;;;;;7.50;99.90;;;;;;5074889;28;19912;-65
2022/02/19 02:01:18;;;;;;;;;;;7.60;99.90;;;;;;5056018;28;19974;-66
2022/02/19 02:03:43;;;;;;;;;;;7.50;99.90;;;;;;5056007;28;19912;-66
2022/02/19 02:06:09;;;;;;;;;;;7.50;99.90;;;;;;5042696;28;20346;-65
2022/02/19 02:08:35;;;;;;;;;;;7.40;99.60;;;;;;5052504;28;19971;-64
2022/02/19 02:11:01;;;;;;;;;;;7.50;99.70;;;;;;5035598;28;20368;-65
2022/02/19 02:13:27;;;;;;;;;;;7.40;99.80;;;;;;5052830;28;20274;-64
2022/02/19 02:15:52;;;;;;;;;;;7.40;99.90;;;;;;5022075;28;19928;-65
2022/02/19 02:18:18;;;;;;;;;;;7.40;99.90;;;;;;5012090;28;19905;-64
2022/02/19 02:20:44;;;;;;;;;;;7.40;99.90;;;;;;5014546;28;20047;-66
2022/02/19 02:23:10;;;;;;;;;;;7.40;99.70;;;;;;5014470;28;19959;-66
2022/02/19 02:25:35;;;;;;;;;;;7.40;99.90;;;;;;5013513;28;19948;-64
2022/02/19 02:28:01;;;;;;;;;;;7.40;99.80;;;;;;5016772;28;19912;-66
2022/02/19 02:30:27;;;;;;;;;;;7.40;99.50;;;;;;5019941;28;19905;-67
2022/02/19 02:32:52;;;;;;;;;;;7.40;99.40;;;;;;5019085;28;20239;-77
2022/02/19 02:35:18;;;;;;;;;;;7.40;99.20;;;;;;5019021;28;19928;-69
2022/02/19 02:37:43;;;;;;;;;;;7.40;99.00;;;;;;5018143;28;19906;-65
2022/02/19 02:40:10;;;;;;;;;;;7.40;98.80;;;;;;5018317;28;19916;-64
2022/02/19 02:42:35;;;;;;;;;;;7.40;97.80;;;;;;5016872;28;19917;-64
2022/02/19 02:45:01;;;;;;;;;;;7.40;97.40;;;;;;5018358;28;19916;-64
2022/02/19 02:47:26;;;;;;;;;;;7.50;97.10;;;;;;5018380;28;20354;-64
2022/02/19 02:49:52;;;;;;;;;;;7.50;96.60;;;;;;5019076;28;19988;-65
2022/02/19 02:52:18;;;;;;;;;;;7.50;97.30;;;;;;5018616;28;20338;-65
2022/02/19 02:54:43;;;;;;;;;;;7.50;98.80;;;;;;5016434;28;19928;-64
2022/02/19 02:57:09;;;;;;;;;;;7.40;99.90;;;;;;5017584;28;19948;-65
2022/02/19 02:59:34;;;;;;;;;;;7.20;99.90;;;;;;5016910;28;20012;-64
2022/02/19 03:02:00;;;;;;;;;;;7.10;99.90;;;;;;5016679;28;19909;-64
2022/02/19 03:04:26;;;;;;;;;;;7.10;99.90;;;;;;5014950;28;20355;-64
2022/02/19 03:06:51;;;;;;;;;;;6.80;99.90;;;;;;5016371;28;19912;-64
2022/02/19 03:09:17;;;;;;;;;;;6.60;99.90;;;;;;5015245;28;19983;-65
2022/02/19 03:11:42;;;;;;;;;;;6.60;99.90;;;;;;5015913;28;19964;-64
2022/02/19 03:14:10;;;;;;;;;;;6.50;99.90;;;;;;5015287;28;19956;-67
2022/02/19 03:16:36;;;;;;;;;;;6.60;99.90;;;;;;5048780;28;19920;-65
2022/02/19 03:19:02;;;;;;;;;;;6.60;99.90;;;;;;5057389;28;19909;-68
2022/02/19 03:21:27;;;;;;;;;;;6.60;99.90;;;;;;5057960;28;19912;-67
2022/02/19 03:23:53;;;;;;;;;;;6.60;99.90;;;;;;5058277;28;20281;-65
2022/02/19 03:26:19;;;;;;;;;;;6.70;99.90;;;;;;5058534;28;19944;-65
2022/02/19 03:28:44;;;;;;;;;;;6.70;99.90;;;;;;5040425;28;19959;-65
2022/02/19 03:31:10;;;;;;;;;;;6.80;99.90;;;;;;5057402;28;19973;-64
2022/02/19 03:33:35;;;;;;;;;;;6.70;99.90;;;;;;5055786;28;19905;-66
2022/02/19 03:36:01;;;;;;;;;;;6.60;99.90;;;;;;5038806;28;20425;-65
2022/02/19 03:38:26;;;;;;;;;;;6.50;99.90;;;;;;5057081;28;20397;-65
2022/02/19 03:40:52;;;;;;;;;;;6.40;99.90;;;;;;5057508;28;19908;-65
2022/02/19 03:43:17;;;;;;;;;;;6.50;99.90;;;;;;5056774;28;20269;-66
2022/02/19 03:45:45;;;;;;;;;;;6.40;99.90;;;;;;5055874;28;19908;-65
2022/02/19 03:48:11;;;;;;;;;;;6.50;99.90;;;;;;5056770;28;19904;-70
2022/02/19 03:50:36;;;;;;;;;;;6.60;99.90;;;;;;5056244;28;19911;-65
2022/02/19 03:53:02;;;;;;;;;;;6.60;99.90;;;;;;5056642;28;19932;-67
2022/02/19 03:55:28;;;;;;;;;;;6.70;99.90;;;;;;5057949;28;19936;-66
2022/02/19 03:57:53;;;;;;;;;;;6.60;99.90;;;;;;5040609;28;19905;-66
2022/02/19 04:00:19;;;;;;;;;;;6.50;99.90;;;;;;5057609;28;19956;-65
2022/02/19 04:02:45;;;;;;;;;;;6.60;99.90;;;;;;5037474;28;19958;-65
2022/02/19 04:05:11;;;;;;;;;;;6.70;99.90;;;;;;5038138;28;19908;-64
2022/02/19 04:07:37;;;;;;;;;;;6.60;99.90;;;;;;5036964;28;19911;-64
2022/02/19 04:10:06;;;;;;;;;;;6.70;99.90;;;;;;5055618;28;19905;-65
2022/02/19 04:12:32;;;;;;;;;;;6.70;99.90;;;;;;5055432;28;19916;-64
2022/02/19 04:14:57;;;;;;;;;;;6.70;99.90;;;;;;5038479;28;19908;-64
2022/02/19 04:17:23;;;;;;;;;;;6.50;99.90;;;;;;5056106;28;20007;-64
2022/02/19 04:19:50;;;;;;;;;;;6.30;99.90;;;;;;5038354;28;19909;-65
2022/02/19 04:22:25;;;;;;;;;;;6.30;99.90;;;;;;5038208;28;19917;-65
2022/02/19 04:24:50;;;;;;;;;;;6.30;99.90;;;;;;5055721;28;20000;-64
2022/02/19 04:27:16;;;;;;;;;;;6.20;99.90;;;;;;5055997;28;19940;-63
2022/02/19 04:29:42;;;;;;;;;;;6.10;99.90;;;;;;5055207;28;19948;-65
2022/02/19 04:32:08;;;;;;;;;;;6.10;99.90;;;;;;5055191;28;20396;-64
2022/02/19 04:34:34;;;;;;;;;;;6.20;99.90;;;;;;5036146;28;19995;-64
2022/02/19 04:36:59;;;;;;;;;;;6.10;99.90;;;;;;5054908;28;19947;-65
2022/02/19 04:39:25;;;;;;;;;;;6.10;99.90;;;;;;5054733;28;19912;-70
2022/02/19 04:41:50;;;;;;;;;;;6.10;99.90;;;;;;5055251;28;19920;-65
2022/02/19 04:44:16;;;;;;;;;;;6.10;99.90;;;;;;5037793;28;20055;-65
2022/02/19 04:46:42;;;;;;;;;;;6.10;99.90;;;;;;5036995;28;19905;-66
2022/02/19 04:49:09;;;;;;;;;;;6.00;99.90;;;;;;5037389;28;19996;-65
2022/02/19 04:51:34;;;;;;;;;;;6.10;99.90;;;;;;5056176;28;20320;-68
2022/02/19 04:54:00;;;;;;;;;;;6.10;99.90;;;;;;5039163;28;19905;-66
2022/02/19 04:56:26;;;;;;;;;;;6.10;99.90;;;;;;5056628;28;19940;-73
2022/02/19 04:58:51;;;;;;;;;;;6.00;99.90;;;;;;5039851;28;20400;-65
2022/02/19 05:01:17;;;;;;;;;;;6.00;99.90;;;;;;5056292;28;20281;-65
2022/02/19 05:03:43;;;;;;;;;;;6.00;99.90;;;;;;5036867;28;19999;-67
2022/02/19 05:06:12;;;;;;;;;;;6.00;99.90;;;;;;5037070;28;19912;-65
2022/02/19 05:08:38;;;;;;;;;;;6.00;99.90;;;;;;5056810;28;19911;-65
2022/02/19 05:11:03;;;;;;;;;;;6.00;99.90;;;;;;5057255;28;19905;-66
2022/02/19 05:13:29;;;;;;;;;;;6.00;99.90;;;;;;5038016;28;19915;-65
2022/02/19 05:15:54;;;;;;;;;;;6.00;99.90;;;;;;5056515;28;19947;-65
2022/02/19 05:18:20;;;;;;;;;;;6.00;99.90;;;;;;5037051;28;19904;-64
2022/02/19 05:20:45;;;;;;;;;;;6.00;99.90;;;;;;5055089;28;19908;-69
2022/02/19 05:23:11;;;;;;;;;;;6.00;99.90;;;;;;5037257;28;19970;-64
2022/02/19 05:25:40;;;;;;;;;;;6.10;99.90;;;;;;5053975;28;20354;-65
2022/02/19 05:28:10;;;;;;;;;;;6.10;99.90;;;;;;5053897;28;19995;-65
2022/02/19 05:30:36;;;;;;;;;;;6.20;99.90;;;;;;5052831;28;19909;-65
2022/02/19 05:33:01;;;;;;;;;;;6.20;99.90;;;;;;5035650;28;19905;-64
2022/02/19 05:35:27;;;;;;;;;;;6.20;99.90;;;;;;5035914;28;19904;-64
2022/02/19 05:37:52;;;;;;;;;;;6.30;99.90;;;;;;5052805;28;19908;-64
2022/02/19 05:40:18;;;;;;;;;;;6.30;99.90;;;;;;5035622;28;19913;-65
2022/02/19 05:42:43;;;;;;;;;;;6.30;99.90;;;;;;5052553;28;19966;-64
2022/02/19 05:45:09;;;;;;;;;;;6.30;99.90;;;;;;5035754;28;19909;-65
2022/02/19 05:47:34;;;;;;;;;;;6.30;99.90;;;;;;5035662;28;19974;-71
2022/02/19 05:50:00;;;;;;;;;;;6.40;99.90;;;;;;5055563;28;20416;-66
2022/02/19 05:52:26;;;;;;;;;;;6.40;99.90;;;;;;5056751;28;19943;-68
2022/02/19 05:54:53;;;;;;;;;;;6.40;99.90;;;;;;5055103;28;19912;-68
2022/02/19 05:57:19;;;;;;;;;;;6.30;99.90;;;;;;5053596;28;19912;-64
2022/02/19 05:59:45;;;;;;;;;;;6.30;99.90;;;;;;5052433;28;20439;-65
2022/02/19 06:02:10;;;;;;;;;;;6.30;99.90;;;;;;5054539;28;19909;-67
2022/02/19 06:04:36;;;;;;;;;;;6.30;99.90;;;;;;5057454;28;19931;-65
2022/02/19 06:07:01;;;;;;;;;;;6.40;99.90;;;;;;5057151;28;19905;-65
2022/02/19 06:09:27;;;;;;;;;;;6.30;99.90;;;;;;5057906;28;19912;-66
2022/02/19 06:11:52;;;;;;;;;;;6.30;99.90;;;;;;5058999;28;19962;-65
2022/02/19 06:14:18;;;;;;;;;;;6.30;99.90;;;;;;5042200;28;19909;-65
2022/02/19 06:16:44;;;;;;;;;;;6.30;99.90;;;;;;5057511;28;19917;-65
2022/02/19 06:19:09;;;;;;;;;;;6.30;99.90;;;;;;5057590;28;19909;-66
2022/02/19 06:21:35;;;;;;;;;;;6.30;99.90;;;;;;5039511;28;19955;-65
2022/02/19 06:24:00;;;;;;;;;;;6.30;99.90;;;;;;5042135;28;19904;-66
2022/02/19 06:26:26;;;;;;;;;;;6.30;99.90;;;;;;5042192;28;19905;-68
2022/02/19 06:28:51;;;;;;;;;;;6.30;99.90;;;;;;5040460;28;20346;-66
2022/02/19 06:31:17;;;;;;;;;;;6.20;99.90;;;;;;5041766;28;19974;-68
2022/02/19 06:33:42;;;;;;;;;;;6.30;99.90;;;;;;5039316;28;19905;-64
2022/02/19 06:36:08;;;;;;;;;;;6.20;99.90;;;;;;5058620;28;19992;-64
2022/02/19 06:38:39;;;;;;;;;;;6.20;99.90;;;;;;5056545;28;19904;-67
2022/02/19 06:41:08;;;;;;;;;;;6.30;99.90;;;;;;5058845;28;19909;-66
2022/02/19 06:43:34;;;;;;;;;;;6.20;99.90;;;;;;5056743;28;19912;-65
2022/02/19 06:46:00;;;;;;;;;;;6.30;99.90;;;;;;5057138;28;20388;-65
2022/02/19 06:48:25;;;;;;;;;;;6.20;99.90;;;;;;5038999;28;19915;-66
2022/02/19 06:50:51;;;;;;;;;;;6.20;99.90;;;;;;5030711;28;20400;-66
2022/02/19 06:53:16;;;;;;;;;;;6.20;99.90;;;;;;5038792;28;20343;-68
2022/02/19 06:55:42;;;;;;;;;;;6.20;99.90;;;;;;5037420;28;19959;-67
2022/02/19 06:58:08;;;;;;;;;;;6.30;99.90;;;;;;5020408;28;20251;-67
2022/02/19 07:00:33;;;;;;;;;;;6.20;99.90;;;;;;5019624;28;19916;-68
2022/02/19 07:02:59;;;;;;;;;;;6.30;99.90;;;;;;5044467;28;19913;-66
2022/02/19 07:05:25;;;;;;;;;;;6.30;99.90;;;;;;5037763;28;20362;-74
2022/02/19 07:07:50;;;;;;;;;;;6.40;99.90;;;;;;5030548;28;20011;-66
2022/02/19 07:10:16;;;;;;;;;;;6.50;99.90;;;;;;5051708;28;19908;-67
2022/02/19 07:12:42;;;;;;;;;;;6.60;99.90;;;;;;5053431;28;19909;-66
2022/02/19 07:15:09;;;;;;;;;;;6.50;99.90;;;;;;5035398;28;19924;-68
2022/02/19 07:17:45;;;;;;;;;;;6.60;99.90;;;;;;5052781;28;19967;-68
2022/02/19 07:20:10;;;;;;;;;;;6.70;99.90;;;;;;5056441;28;20003;-65
2022/02/19 07:22:36;;;;;;;;;;;6.70;99.90;;;;;;5038999;28;20001;-66
2022/02/19 07:25:01;;;;;;;;;;;8.30;99.90;;;;;;5032641;28;20277;-68
2022/02/19 07:27:35;;;;;;;;;;;7.80;99.90;;;;;;5018713;28;20325;-69
2022/02/19 07:30:00;;;;;;;;;;;7.60;99.90;;;;;;5036677;28;19905;-67
2022/02/19 07:32:26;;;;;;;;;;;7.50;99.90;;;;;;4997441;28;19916;-66
2022/02/19 07:34:51;;;;;;;;;;;7.70;99.90;;;;;;5013307;28;19905;-66
2022/02/19 07:37:17;;;;;;;;;;;7.70;99.90;;;;;;5014313;28;19912;-66
2022/02/19 07:39:42;;;;;;;;;;;7.60;99.10;;;;;;5013455;28;19913;-67
2022/02/19 07:42:08;;;;;;;;;;;7.90;99.10;;;;;;5014092;28;20314;-69
2022/02/19 07:44:33;;;;;;;;;;;7.90;98.50;;;;;;5000559;28;19920;-68
2022/02/19 07:46:59;;;;;;;;;;;8.20;98.10;;;;;;5029089;28;19932;-66
2022/02/19 08:00:21;;;;;;;;;;;9.10;96.00;;;;;;5031654;28;20285;-70
2022/02/19 08:02:46;;;;;;;;;;;9.30;95.60;;;;;;5033787;28;20003;-66
2022/02/19 08:05:13;;;;;;;;;;;9.10;95.60;;;;;;5033593;28;20355;-66
2022/02/19 08:07:39;;;;;;;;;;;9.20;95.80;;;;;;5051812;28;20334;-68
2022/02/19 08:10:04;;;;;;;;;;;9.60;94.90;;;;;;5037235;28;19915;-67
2022/02/19 08:12:30;;;;;;;;;;;10.00;94.40;;;;;;5053364;28;19909;-66
2022/02/19 08:14:55;;;;;;;;;;;9.80;93.60;;;;;;5054650;28;20007;-67
2022/02/19 08:17:21;;;;;;;;;;;9.70;93.40;;;;;;5038018;28;20242;-65
2022/02/19 08:19:46;;;;;;;;;;;9.90;93.20;;;;;;5039725;28;19944;-67
2022/02/19 08:22:12;;;;;;;;;;;9.90;93.20;;;;;;5054984;28;19919;-66
2022/02/19 08:24:37;;;;;;;;;;;10.00;93.10;;;;;;5036363;28;19904;-70
2022/02/19 08:27:04;;;;;;;;;;;10.30;92.30;;;;;;5044229;28;19909;-68
2022/02/19 08:29:29;;;;;;;;;;;10.80;91.90;;;;;;5039802;28;19917;-70
2022/02/19 08:31:55;;;;;;;;;;;10.70;90.20;;;;;;5028744;28;20254;-68
2022/02/19 08:34:20;;;;;;;;;;;10.80;89.80;;;;;;5031991;28;19908;-68
2022/02/19 08:36:46;;;;;;;;;;;10.80;89.90;;;;;;5038610;28;19905;-68
2022/02/19 08:39:11;;;;;;;;;;;10.60;90.00;;;;;;5055120;28;19944;-67
2022/02/19 08:41:37;;;;;;;;;;;10.60;89.50;;;;;;5045194;28;19913;-69
2022/02/19 08:44:02;;;;;;;;;;;10.60;90.00;;;;;;5028846;28;20412;-68
2022/02/19 08:46:28;;;;;;;;;;;10.70;89.70;;;;;;5032757;28;20327;-66
2022/02/19 08:48:54;;;;;;;;;;;11.10;88.40;;;;;;5054910;28;19927;-68
2022/02/19 08:51:19;;;;;;;;;;;10.80;88.30;;;;;;5055925;28;20339;-68
2022/02/19 08:53:45;;;;;;;;;;;10.70;89.20;;;;;;5026857;28;20274;-66
2022/02/19 08:56:10;;;;;;;;;;;11.10;88.40;;;;;;5036318;28;20307;-69
2022/02/19 08:58:36;;;;;;;;;;;11.20;85.80;;;;;;5036006;28;20450;-68
2022/02/19 09:01:02;;;;;;;;;;;11.30;86.60;;;;;;5050234;28;19920;-69
2022/02/19 09:03:27;;;;;;;;;;;10.70;86.80;;;;;;5030608;28;19934;-67
2022/02/19 09:05:52;;;;;;;;;;;11.00;86.20;;;;;;5033925;28;20358;-68
2022/02/19 09:08:18;;;;;;;;;;;11.40;84.90;;;;;;5032733;28;19909;-70
2022/02/19 09:10:45;;;;;;;;;;;11.20;91.80;;;;;;5036090;28;19904;-64
2022/02/19 09:13:10;;;;;;;;;;;12.10;99.90;;;;;;5051892;28;19908;-66
2022/02/19 09:15:38;;;;;;;;;;;13.20;99.90;;;;;;5044735;28;19927;-66
2022/02/19 09:18:04;;;;;;;;;;;13.90;99.90;;;;;;5016536;28;19928;-68
2022/02/19 09:20:29;;;;;;;;;;;14.00;95.70;;;;;;5034161;28;20405;-67
2022/02/19 09:22:55;;;;;;;;;;;13.80;93.40;;;;;;5016270;28;19936;-71
2022/02/19 09:25:20;;;;;;;;;;;13.70;93.40;;;;;;5016434;28;19912;-68
2022/02/19 09:27:46;;;;;;;;;;;14.40;92.80;;;;;;5031255;28;19905;-67
2022/02/19 09:30:12;;;;;;;;;;;14.30;96.10;;;;;;5016114;28;19912;-70
2022/02/19 09:32:39;;;;;;;;;;;14.30;94.40;;;;;;5032559;28;20478;-65
2022/02/19 09:35:05;;;;;;;;;;;12.90;76.30;;;;;;5031058;28;19905;-57
2022/02/19 09:37:32;;;;;;;;;;;13.50;99.90;;;;;;5013290;28;19955;-57
2022/02/19 09:39:57;;;;;;;;;;;15.70;99.90;;;;;;5014460;28;19909;-58
2022/02/19 09:42:23;;;;;;;;;;;16.10;91.80;;;;;;5030824;28;19912;-67
2022/02/19 09:44:49;;;;;;;;;;;14.80;72.20;;;;;;5030948;28;20385;-67
2022/02/19 09:47:22;;;;;;;;;;;13.90;71.50;;;;;;5015330;28;19905;-67
2022/02/19 09:49:48;;;;;;;;;;;13.20;72.40;;;;;;5030769;28;20385;-70
2022/02/19 09:52:14;;;;;;;;;;;13.20;72.70;;;;;;5030292;28;19940;-68
2022/02/19 09:54:40;;;;;;;;;;;13.30;72.00;;;;;;5031240;28;19952;-67
2022/02/19 09:57:05;;;;;;;;;;;12.80;72.10;;;;;;5021839;28;20267;-66
2022/02/19 09:59:31;;;;;;;;;;;12.60;72.00;;;;;;5012563;28;19910;-71
2022/02/19 10:02:01;;;;;;;;;;;12.70;73.10;;;;;;5012209;28;19972;-68
2022/02/19 10:04:26;;;;;;;;;;;12.30;73.50;;;;;;5012871;28;19909;-65
2022/02/19 10:06:52;;;;;;;;;;;11.90;74.40;;;;;;5013146;28;20374;-66
2022/02/19 10:09:22;;;;;;;;;;;12.20;73.20;;;;;;5013049;28;19933;-67
2022/02/19 10:11:48;;;;;;;;;;;12.10;73.20;;;;;;5013902;28;20279;-69
2022/02/19 10:14:31;;;;;;;;;;;13.20;84.60;;;;;;5013960;28;20346;-68
2022/02/19 10:17:17;;;;;;;;;;;13.50;76.10;;;;;;5050165;28;19916;-67
2022/02/19 10:19:47;;;;;;;;;;;13.00;73.80;;;;;;5053778;28;19915;-69
2022/02/19 10:22:13;;;;;;;;;;;13.40;73.40;;;;;;5053944;28;19955;-68
2022/02/19 10:24:39;;;;;;;;;;;13.70;71.60;;;;;;5055175;28;19905;-68
2022/02/19 10:27:04;;;;;;;;;;;14.00;71.30;;;;;;5037128;28;20709;-67
2022/02/19 10:29:45;;;;;;;;;;;13.30;70.20;;;;;;5038145;28;19905;-70
2022/02/19 10:32:10;;;;;;;;;;;13.00;69.70;;;;;;5055921;28;20405;-68
2022/02/19 10:34:37;;;;;;;;;;;12.50;70.80;;;;;;5055094;28;19952;-68
2022/02/19 10:37:03;;;;;;;;;;;13.00;71.10;;;;;;5056033;28;19905;-68
2022/02/19 10:39:32;;;;;;;;;;;13.20;70.40;;;;;;5037238;28;20095;-68
2022/02/19 10:42:05;;;;;;;;;;;13.20;69.60;;;;;;5054676;28;20377;-68
2022/02/19 10:44:31;;;;;;;;;;;13.30;68.60;;;;;;5056026;28;19908;-68
2022/02/19 10:47:16;;;;;;;;;;;13.60;68.40;;;;;;5038840;28;19936;-69
2022/02/19 10:50:02;;;;;;;;;;;13.50;67.40;;;;;;5040159;28;19951;-68
2022/02/19 10:52:27;;;;;;;;;;;13.30;67.90;;;;;;5039247;28;20354;-68
2022/02/19 10:54:53;;;;;;;;;;;12.70;66.60;;;;;;5057619;28;19966;-67
2022/02/19 10:57:21;;;;;;;;;;;12.80;67.30;;;;;;5057819;28;19912;-68
2022/02/19 10:59:47;;;;;;;;;;;12.80;67.80;;;;;;5056473;28;20338;-72
2022/02/19 11:02:14;;;;;;;;;;;12.70;68.20;;;;;;5056965;28;20409;-67
2022/02/19 11:04:39;;;;;;;;;;;13.20;67.30;;;;;;5039393;28;19912;-69
2022/02/19 11:07:05;;;;;;;;;;;13.40;65.80;;;;;;5039121;28;19905;-67
2022/02/19 11:09:32;;;;;;;;;;;13.60;65.30;;;;;;5057806;28;19904;-69
2022/02/19 11:11:58;;;;;;;;;;;13.10;66.20;;;;;;5057960;28;19915;-69
2022/02/19 11:14:23;;;;;;;;;;;13.00;66.20;;;;;;5058301;28;20297;-68
2022/02/19 11:16:49;;;;;;;;;;;13.50;66.00;;;;;;5038752;28;19967;-68
2022/02/19 11:19:15;;;;;;;;;;;13.00;65.90;;;;;;5039629;28;19971;-67
2022/02/19 11:21:41;;;;;;;;;;;13.00;66.10;;;;;;5040026;28;20424;-68
2022/02/19 11:24:08;;;;;;;;;;;12.40;66.20;;;;;;5058012;28;19905;-67
2022/02/19 11:26:34;;;;;;;;;;;12.40;66.10;;;;;;5038549;28;20334;-67
2022/02/19 11:29:02;;;;;;;;;;;12.60;66.20;;;;;;5056190;28;19971;-68
2022/02/19 11:31:29;;;;;;;;;;;12.80;65.90;;;;;;5038884;28;19904;-66
2022/02/19 11:33:59;;;;;;;;;;;12.80;65.10;;;;;;5037955;28;20476;-70
2022/02/19 11:36:28;;;;;;;;;;;12.80;66.40;;;;;;5039073;28;20019;-68
2022/02/19 11:38:54;;;;;;;;;;;13.30;65.40;;;;;;5039362;28;19995;-68
2022/02/19 11:41:31;;;;;;;;;;;12.40;65.30;;;;;;5057123;28;20353;-69
2022/02/19 11:43:56;;;;;;;;;;;12.80;66.00;;;;;;5057283;28;19916;-69
2022/02/19 11:46:21;;;;;;;;;;;13.10;66.50;;;;;;5057039;28;19911;-68
2022/02/19 11:48:48;;;;;;;;;;;12.90;66.70;;;;;;5059044;28;19905;-69
2022/02/19 11:51:20;;;;;;;;;;;12.50;67.20;;;;;;5040398;28;19933;-66
2022/02/19 11:53:47;;;;;;;;;;;11.80;68.80;;;;;;5059454;28;20031;-73
2022/02/19 11:56:35;;;;;;;;;;;12.00;69.60;;;;;;5059139;28;19950;-72
2022/02/19 11:59:02;;;;;;;;;;;12.70;68.60;;;;;;5057317;28;19939;-68
2022/02/19 12:01:28;;;;;;;;;;;13.40;67.60;;;;;;5056773;28;19916;-72
2022/02/19 12:04:09;;;;;;;;;;;13.30;66.90;;;;;;5057423;28;19944;-68
2022/02/19 12:06:42;;;;;;;;;;;13.80;66.20;;;;;;5039640;28;19927;-68
2022/02/19 12:09:10;;;;;;;;;;;13.60;66.90;;;;;;5037824;28;19904;-69
2022/02/19 12:11:59;;;;;;;;;;;13.20;66.70;;;;;;5058372;28;19909;-68
2022/02/19 12:14:50;;;;;;;;;;;13.00;67.80;;;;;;5048881;28;20003;-69
2022/02/19 12:17:17;;;;;;;;;;;12.90;67.70;;;;;;5037258;28;19920;-68
2022/02/19 12:19:52;;;;;;;;;;;13.00;68.10;;;;;;5038280;28;20266;-70
2022/02/19 12:22:47;;;;;;;;;;;12.90;68.40;;;;;;5038263;28;19904;-68
2022/02/19 12:25:12;;;;;;;;;;;12.10;69.70;;;;;;5031374;28;19909;-69
2022/02/19 12:27:39;;;;;;;;;;;11.70;71.80;;;;;;5037967;28;19990;-67
2022/02/19 12:30:17;;;;;;;;;;;12.10;72.20;;;;;;5055172;28;19971;-68
2022/02/19 12:32:43;;;;;;;;;;;12.60;70.80;;;;;;5056177;28;19905;-73
2022/02/19 12:35:09;;;;;;;;;;;12.30;70.70;;;;;;5056735;28;19913;-69
2022/02/19 12:37:36;;;;;;;;;;;11.80;72.20;;;;;;5038838;28;19912;-70
2022/02/19 12:40:03;;;;;;;;;;;11.80;73.50;;;;;;5055814;28;20358;-68
2022/02/19 12:42:30;;;;;;;;;;;12.40;72.60;;;;;;5037665;28;20346;-69
2022/02/19 12:44:59;;;;;;;;;;;12.00;71.70;;;;;;5037508;28;19924;-71
2022/02/19 12:47:25;;;;;;;;;;;12.00;72.30;;;;;;5056333;28;19905;-71
2022/02/19 12:49:50;;;;;;;;;;;12.00;72.30;;;;;;5037531;28;19916;-67
2022/02/19 12:52:16;;;;;;;;;;;12.10;72.30;;;;;;5054621;28;19908;-68
2022/02/19 12:54:45;;;;;;;;;;;11.70;73.70;;;;;;5037620;28;19935;-68
2022/02/19 12:57:14;;;;;;;;;;;11.10;75.00;;;;;;5036906;28;19905;-71
2022/02/19 12:59:42;;;;;;;;;;;11.00;76.50;;;;;;5055728;28;19913;-67
2022/02/19 13:02:09;;;;;;;;;;;11.00;76.50;;;;;;5036406;28;20354;-67
2022/02/19 13:04:38;;;;;;;;;;;11.00;76.50;;;;;;5037155;28;19911;-68
2022/02/19 13:07:05;;;;;;;;;;;10.70;76.60;;;;;;5036182;28;19905;-67
2022/02/19 13:09:31;;;;;;;;;;;10.60;76.70;;;;;;5036803;28;19905;-70
2022/02/19 13:11:57;;;;;;;;;;;10.40;78.40;;;;;;5053637;28;19915;-69
2022/02/19 13:14:25;;;;;;;;;;;10.20;78.60;;;;;;5055840;28;20019;-68
2022/02/19 13:17:01;;;;;;;;;;;10.40;78.30;;;;;;5037843;28;19917;-69
2022/02/19 13:19:27;;;;;;;;;;;10.60;78.50;;;;;;5038609;28;20452;-73
2022/02/19 13:21:59;;;;;;;;;;;10.70;78.10;;;;;;5037043;28;19905;-68
2022/02/19 13:24:24;;;;;;;;;;;10.50;79.00;;;;;;5054144;28;19905;-68
2022/02/19 13:26:50;;;;;;;;;;;10.40;80.10;;;;;;5036089;28;19955;-69
2022/02/19 13:29:21;;;;;;;;;;;10.30;80.20;;;;;;5035759;28;20346;-68
2022/02/19 13:31:46;;;;;;;;;;;9.90;81.40;;;;;;5054122;28;19912;-68
2022/02/19 13:34:12;;;;;;;;;;;9.90;82.30;;;;;;5035544;28;19904;-67
2022/02/19 13:36:38;;;;;;;;;;;10.20;82.40;;;;;;5036792;28;20342;-70
2022/02/19 13:39:15;;;;;;;;;;;10.30;82.00;;;;;;5056101;28;20213;-67
2022/02/19 13:41:50;;;;;;;;;;;10.40;82.10;;;;;;5053636;28;19905;-67
2022/02/19 13:44:16;;;;;;;;;;;10.20;81.90;;;;;;5035201;28;20062;-69
2022/02/19 13:46:41;;;;;;;;;;;9.80;82.20;;;;;;5035857;28;19987;-66
2022/02/19 13:49:07;;;;;;;;;;;9.90;82.70;;;;;;5035193;28;20306;-68
2022/02/19 13:51:33;;;;;;;;;;;9.70;83.00;;;;;;5053660;28;19904;-68
2022/02/19 13:54:18;;;;;;;;;;;9.70;83.00;;;;;;5035066;28;19905;-68
2022/02/19 13:56:45;;;;;;;;;;;9.80;82.80;;;;;;5035439;28;19911;-68
2022/02/19 13:59:20;;;;;;;;;;;9.70;83.00;;;;;;5034501;28;19960;-68
2022/02/19 14:01:46;;;;;;;;;;;9.60;82.90;;;;;;5035656;28;19909;-67
2022/02/19 14:04:35;;;;;;;;;;;9.70;82.90;;;;;;5034921;28;19905;-69
2022/02/19 14:07:10;;;;;;;;;;;9.70;81.60;;;;;;5034570;28;19905;-71
2022/02/19 14:09:36;;;;;;;;;;;9.70;81.60;;;;;;5053447;28;19942;-69
2022/02/19 14:12:02;;;;;;;;;;;9.70;81.80;;;;;;5052524;28;20381;-71
2022/02/19 14:14:28;;;;;;;;;;;9.80;81.00;;;;;;5034713;28;20388;-69
2022/02/19 14:17:04;;;;;;;;;;;9.60;80.10;;;;;;5034975;28;19920;-67
2022/02/19 14:19:30;;;;;;;;;;;9.30;80.90;;;;;;5035405;28;19982;-68
2022/02/19 14:22:09;;;;;;;;;;;9.50;81.30;;;;;;5035895;28;19909;-69
2022/02/19 14:24:54;;;;;;;;;;;9.60;80.30;;;;;;5057132;28;20372;-68
2022/02/19 14:27:20;;;;;;;;;;;9.50;81.10;;;;;;5038923;28;19999;-67
2022/02/19 14:29:46;;;;;;;;;;;9.50;80.90;;;;;;5039759;28;20411;-68
2022/02/19 14:32:12;;;;;;;;;;;9.40;80.90;;;;;;5039098;28;19992;-70
2022/02/19 14:34:37;;;;;;;;;;;9.20;81.90;;;;;;5057827;28;20034;-68
2022/02/19 14:37:03;;;;;;;;;;;9.30;82.30;;;;;;5057277;28;19950;-69